Time;durP1;ratioP1;P1;durP2;ratioP2;P2;SDS_P1;SDS_P2;PMS_P1;PMS_P2;Temp;Humidity;BMP_temperature;BMP_pressure;BME280_temperature;BME280_humidity;BME280_pressure;Samples;Min_cycle;Max_cycle;Signal;HPM_P1;HPM_P2
2023/05/20 00:01:58;;;;;;;3.80;2.08;;;16.10;66.40;;;;;;5011321;28;20041;-69
2023/05/20 00:04:24;;;;;;;2.42;1.35;;;16.10;66.20;;;;;;5010379;28;20026;-68
2023/05/20 00:06:50;;;;;;;2.60;1.40;;;16.20;66.80;;;;;;5011202;28;20368;-68
2023/05/20 00:09:16;;;;;;;3.95;1.50;;;16.10;66.20;;;;;;5011109;28;20109;-69
2023/05/20 00:11:42;;;;;;;1.67;1.30;;;16.00;66.70;;;;;;5011603;28;20202;-69
2023/05/20 00:14:07;;;;;;;2.28;1.45;;;16.10;66.40;;;;;;5011071;28;20034;-69
2023/05/20 00:16:33;;;;;;;4.18;1.35;;;16.10;66.60;;;;;;5011081;28;20026;-68
2023/05/20 00:18:59;;;;;;;3.92;1.52;;;16.00;66.90;;;;;;5011091;28;20116;-68
2023/05/20 00:21:24;;;;;;;3.85;1.65;;;15.90;66.70;;;;;;5010961;28;20051;-69
2023/05/20 00:23:50;;;;;;;2.55;1.55;;;15.90;66.70;;;;;;5011277;28;20120;-68
2023/05/20 00:26:16;;;;;;;3.40;1.17;;;15.90;67.00;;;;;;5011204;28;20456;-68
2023/05/20 00:28:42;;;;;;;2.90;1.08;;;15.90;66.70;;;;;;5010928;28;20052;-67
2023/05/20 00:31:07;;;;;;;3.00;1.40;;;15.80;68.50;;;;;;5010815;28;20042;-68
2023/05/20 00:33:35;;;;;;;2.28;1.25;;;15.80;67.50;;;;;;5010972;28;20030;-69
2023/05/20 00:36:00;;;;;;;4.20;1.43;;;15.70;67.70;;;;;;5011548;28;20348;-69
2023/05/20 00:38:26;;;;;;;5.55;1.48;;;15.70;68.10;;;;;;5010759;28;20040;-68
2023/05/20 00:40:52;;;;;;;1.60;1.05;;;15.70;68.40;;;;;;5010796;28;20049;-68
2023/05/20 00:43:19;;;;;;;2.08;1.30;;;15.70;68.00;;;;;;5010622;28;20056;-68
2023/05/20 00:45:46;;;;;;;3.40;1.23;;;15.70;67.80;;;;;;5010836;28;20483;-69
2023/05/20 00:48:12;;;;;;;2.65;1.40;;;15.50;68.10;;;;;;5010672;28;20040;-69
2023/05/20 00:50:39;;;;;;;1.52;1.10;;;15.50;68.20;;;;;;5011213;28;20022;-69
2023/05/20 00:53:05;;;;;;;2.67;2.00;;;15.60;68.10;;;;;;5010811;28;20109;-67
2023/05/20 00:55:31;;;;;;;3.45;1.20;;;15.60;68.60;;;;;;5010674;28;20066;-67
2023/05/20 00:57:57;;;;;;;2.75;1.15;;;15.60;68.90;;;;;;5010572;28;20049;-69
2023/05/20 01:00:23;;;;;;;1.80;1.02;;;15.50;68.60;;;;;;5013179;28;20018;-69
2023/05/20 01:02:48;;;;;;;1.90;1.25;;;15.60;68.90;;;;;;5030713;28;20057;-68
2023/05/20 01:05:14;;;;;;;4.22;1.50;;;15.50;68.50;;;;;;5030584;28;20037;-67
2023/05/20 01:07:40;;;;;;;2.42;1.20;;;15.50;68.20;;;;;;5030246;28;20026;-67
2023/05/20 01:10:07;;;;;;;1.83;1.02;;;15.50;68.10;;;;;;5013821;28;20226;-67
2023/05/20 01:12:42;;;;;;;1.92;1.40;;;15.40;68.80;;;;;;5030281;28;20491;-68
2023/05/20 01:15:10;;;;;;;9.75;1.35;;;15.40;69.20;;;;;;4996994;28;20041;-68
2023/05/20 01:17:45;;;;;;;3.65;1.25;;;15.30;69.10;;;;;;5015071;28;20026;-69
2023/05/20 01:20:13;;;;;;;3.25;1.77;;;15.30;70.10;;;;;;5014201;28;20038;-68
2023/05/20 01:22:52;;;;;;;2.08;1.30;;;15.40;69.90;;;;;;4996801;28;20029;-69
2023/05/20 01:25:17;;;;;;;2.25;1.42;;;15.30;69.60;;;;;;5014260;28;20030;-69
2023/05/20 01:27:43;;;;;;;2.97;1.33;;;15.20;70.00;;;;;;5014143;28;20049;-68
2023/05/20 01:30:10;;;;;;;5.65;1.65;;;15.20;70.60;;;;;;5013739;28;20030;-69
2023/05/20 01:32:46;;;;;;;2.25;1.20;;;15.20;69.40;;;;;;5014620;28;20429;-69
2023/05/20 01:35:13;;;;;;;5.68;1.30;;;15.20;70.10;;;;;;5013752;28;20425;-67
2023/05/20 01:37:40;;;;;;;5.43;1.50;;;15.00;70.30;;;;;;5014078;28;20054;-68
2023/05/20 01:40:12;;;;;;;2.10;1.17;;;15.00;70.10;;;;;;5013958;28;20048;-67
2023/05/20 01:42:40;;;;;;;4.97;1.23;;;15.00;70.20;;;;;;5013712;28;20033;-68
2023/05/20 01:45:06;;;;;;;1.52;1.15;;;14.90;70.50;;;;;;5013892;28;20026;-68
2023/05/20 01:47:32;;;;;;;2.20;1.33;;;14.90;70.90;;;;;;4996966;28;20404;-68
2023/05/20 01:49:57;;;;;;;2.10;1.30;;;14.90;70.10;;;;;;5013625;28;20037;-68
2023/05/20 01:52:23;;;;;;;3.17;1.00;;;14.90;70.00;;;;;;4996289;28;20125;-67
2023/05/20 01:54:51;;;;;;;1.98;1.10;;;14.90;70.40;;;;;;5013540;28;20084;-67
2023/05/20 01:57:21;;;;;;;4.95;1.25;;;14.80;70.50;;;;;;4996083;28;20025;-67
2023/05/20 01:59:47;;;;;;;2.47;1.35;;;14.80;70.50;;;;;;5014358;28;20049;-67
2023/05/20 02:02:13;;;;;;;3.20;1.10;;;14.70;70.40;;;;;;5013580;28;20030;-68
2023/05/20 02:04:41;;;;;;;2.67;1.20;;;14.70;70.60;;;;;;5013487;28;20021;-69
2023/05/20 02:07:06;;;;;;;1.98;1.30;;;14.70;70.70;;;;;;5013457;28;20471;-68
2023/05/20 02:09:32;;;;;;;4.90;1.20;;;14.70;70.80;;;;;;5013360;28;20041;-67
2023/05/20 02:11:58;;;;;;;3.70;1.00;;;14.70;71.10;;;;;;5013781;28;20080;-67
2023/05/20 02:14:23;;;;;;;5.55;1.08;;;14.50;71.30;;;;;;5013434;28;20038;-69
2023/05/20 02:16:49;;;;;;;4.75;1.48;;;14.50;71.10;;;;;;5013241;28;20034;-68
2023/05/20 02:19:22;;;;;;;3.20;1.25;;;14.50;70.80;;;;;;4996072;28;20038;-68
2023/05/20 02:21:48;;;;;;;1.88;0.88;;;14.40;71.50;;;;;;4995134;28;20456;-68
2023/05/20 02:24:13;;;;;;;2.22;1.00;;;14.40;71.50;;;;;;5013084;28;20116;-68
2023/05/20 02:26:40;;;;;;;2.25;1.20;;;14.30;72.00;;;;;;4996214;28;20105;-69
2023/05/20 02:29:05;;;;;;;6.28;1.20;;;14.30;72.10;;;;;;5013039;28;20041;-69
2023/05/20 02:31:31;;;;;;;4.15;1.30;;;14.20;72.50;;;;;;5013006;28;20038;-70
2023/05/20 02:33:57;;;;;;;2.17;0.98;;;14.20;72.30;;;;;;5013156;28;20478;-70
2023/05/20 02:36:22;;;;;;;3.15;1.00;;;14.30;72.50;;;;;;4995776;28;20026;-68
2023/05/20 02:38:48;;;;;;;2.35;1.00;;;14.20;71.90;;;;;;5013418;28;20037;-69
2023/05/20 02:41:14;;;;;;;10.65;1.65;;;14.30;72.80;;;;;;5012953;28;20052;-70
2023/05/20 02:43:40;;;;;;;1.40;0.75;;;14.30;72.80;;;;;;5012805;28;20117;-69
2023/05/20 02:46:06;;;;;;;5.25;1.13;;;14.30;73.30;;;;;;5012747;28;20523;-69
2023/05/20 02:48:31;;;;;;;1.80;1.13;;;14.30;72.90;;;;;;5012682;28;20038;-68
2023/05/20 02:50:58;;;;;;;2.75;1.23;;;14.20;73.10;;;;;;4995938;28;20045;-68
2023/05/20 02:53:24;;;;;;;5.25;1.27;;;14.20;73.00;;;;;;5012756;28;20121;-69
2023/05/20 02:55:50;;;;;;;1.98;0.90;;;14.20;73.50;;;;;;5012672;28;20610;-68
2023/05/20 02:58:16;;;;;;;3.05;1.20;;;14.20;73.50;;;;;;5012517;28;20068;-68
2023/05/20 03:00:42;;;;;;;2.80;1.02;;;14.20;74.10;;;;;;4995208;28;20468;-68
2023/05/20 03:03:09;;;;;;;2.42;1.13;;;14.20;73.50;;;;;;5012791;28;20029;-68
2023/05/20 03:05:36;;;;;;;3.33;1.17;;;14.30;73.70;;;;;;5012826;28;20033;-68
2023/05/20 03:08:08;;;;;;;5.18;1.10;;;14.30;73.90;;;;;;5012534;28;20165;-69
2023/05/20 03:10:35;;;;;;;6.05;1.40;;;14.20;74.00;;;;;;4994956;28;20030;-70
2023/05/20 03:13:01;;;;;;;2.03;1.20;;;14.10;74.60;;;;;;4994805;28;20429;-70
2023/05/20 03:15:26;;;;;;;2.38;1.10;;;14.20;74.50;;;;;;4994704;28;20033;-70
2023/05/20 03:17:52;;;;;;;1.30;0.80;;;14.10;74.80;;;;;;5012506;28;20041;-68
2023/05/20 03:20:19;;;;;;;2.08;1.38;;;14.20;74.80;;;;;;5012071;28;20571;-69
2023/05/20 03:22:45;;;;;;;2.30;1.00;;;14.10;74.20;;;;;;5011911;28;20360;-68
2023/05/20 03:25:10;;;;;;;3.83;1.80;;;14.10;74.70;;;;;;5011809;28;20246;-68
2023/05/20 03:27:36;;;;;;;5.35;1.85;;;14.10;74.60;;;;;;5011882;28;20084;-69
2023/05/20 03:30:03;;;;;;;1.98;1.30;;;14.20;75.20;;;;;;5011952;28;20413;-69
2023/05/20 03:32:29;;;;;;;3.05;1.40;;;14.10;75.60;;;;;;5014134;28;20049;-70
2023/05/20 03:34:56;;;;;;;3.30;1.20;;;14.20;75.10;;;;;;5013225;28;20463;-69
2023/05/20 03:37:22;;;;;;;3.08;1.05;;;14.10;76.00;;;;;;5031484;28;20045;-70
2023/05/20 03:39:48;;;;;;;1.52;1.00;;;14.20;76.10;;;;;;5031394;28;20560;-69
2023/05/20 03:42:14;;;;;;;3.67;1.10;;;14.00;77.10;;;;;;5031284;28;20095;-69
2023/05/20 03:44:39;;;;;;;4.47;1.40;;;13.90;77.90;;;;;;5032087;28;20462;-71
2023/05/20 03:47:05;;;;;;;2.30;1.15;;;13.90;78.30;;;;;;5031385;28;20026;-70
2023/05/20 03:49:31;;;;;;;7.70;1.42;;;14.00;78.10;;;;;;5013740;28;20044;-70
2023/05/20 03:51:56;;;;;;;2.30;1.30;;;14.00;77.50;;;;;;5031384;28;20037;-69
2023/05/20 03:54:22;;;;;;;1.73;1.30;;;14.10;76.60;;;;;;5031375;28;20068;-70
2023/05/20 03:56:48;;;;;;;2.78;1.17;;;14.10;77.00;;;;;;5031615;28;20025;-70
2023/05/20 03:59:14;;;;;;;6.97;1.27;;;14.10;76.60;;;;;;5031087;28;20108;-70
2023/05/20 04:01:39;;;;;;;3.55;1.60;;;14.20;76.70;;;;;;5013595;28;20083;-69
2023/05/20 04:04:05;;;;;;;1.73;1.00;;;14.30;76.60;;;;;;5030689;28;20033;-70
2023/05/20 04:06:31;;;;;;;4.10;2.10;;;14.30;76.20;;;;;;5013573;28;20021;-69
2023/05/20 04:08:57;;;;;;;5.05;1.52;;;14.30;76.20;;;;;;5013934;28;20036;-68
2023/05/20 04:11:23;;;;;;;2.65;1.45;;;14.30;75.90;;;;;;5030953;28;20105;-67
2023/05/20 04:13:49;;;;;;;3.08;1.20;;;14.30;76.20;;;;;;5031003;28;20083;-68
2023/05/20 04:16:14;;;;;;;6.05;1.27;;;14.40;75.80;;;;;;5031117;28;20033;-68
2023/05/20 04:18:40;;;;;;;3.85;1.08;;;14.40;76.20;;;;;;5030755;28;20460;-68
2023/05/20 04:21:06;;;;;;;3.95;1.33;;;14.40;75.60;;;;;;5030944;28;20455;-69
2023/05/20 04:23:32;;;;;;;5.13;1.77;;;14.40;75.70;;;;;;5031006;28;20055;-68
2023/05/20 04:26:01;;;;;;;5.78;1.45;;;14.40;75.80;;;;;;5030808;28;20053;-67
2023/05/20 04:28:27;;;;;;;4.00;1.35;;;14.50;75.80;;;;;;5030548;28;20340;-68
2023/05/20 04:31:05;;;;;;;8.23;2.95;;;14.50;75.80;;;;;;5030696;28;20041;-69
2023/05/20 04:33:31;;;;;;;3.88;1.40;;;14.50;75.60;;;;;;5030681;28;20075;-68
2023/05/20 04:35:58;;;;;;;4.68;1.67;;;14.50;75.70;;;;;;5013604;28;20125;-69
2023/05/20 04:38:31;;;;;;;4.03;1.40;;;14.60;76.10;;;;;;5030659;28;20128;-69
2023/05/20 04:40:59;;;;;;;3.67;1.77;;;14.50;76.10;;;;;;5030709;28;20037;-70
2023/05/20 04:43:28;;;;;;;2.67;1.40;;;14.50;76.20;;;;;;5030660;28;20029;-69
2023/05/20 04:45:55;;;;;;;3.85;1.48;;;14.50;76.80;;;;;;5033253;28;20029;-69
2023/05/20 04:48:21;;;;;;;2.95;1.45;;;14.50;77.10;;;;;;5017021;28;20021;-68
2023/05/20 04:50:50;;;;;;;5.40;1.27;;;14.50;77.30;;;;;;5035330;28;20469;-69
2023/05/20 04:53:17;;;;;;;5.65;1.50;;;14.40;77.70;;;;;;5034555;28;20038;-69
2023/05/20 04:55:44;;;;;;;2.90;1.25;;;14.40;77.90;;;;;;5034443;28;20056;-69
2023/05/20 04:58:16;;;;;;;9.73;1.85;;;14.50;77.90;;;;;;5017031;28;20033;-70
2023/05/20 05:00:43;;;;;;;2.88;1.45;;;14.50;77.70;;;;;;5016963;28;20117;-69
2023/05/20 05:03:08;;;;;;;4.38;1.60;;;14.60;77.50;;;;;;5034414;28;20104;-68
2023/05/20 05:05:39;;;;;;;2.03;1.20;;;14.60;77.70;;;;;;5035114;28;20093;-69
2023/05/20 05:08:05;;;;;;;7.20;1.60;;;14.70;77.70;;;;;;5034299;28;20362;-68
2023/05/20 05:10:31;;;;;;;4.55;1.80;;;14.70;77.60;;;;;;5034118;28;20037;-69
2023/05/20 05:12:57;;;;;;;3.17;1.50;;;14.80;77.70;;;;;;5034263;28;20068;-68
2023/05/20 05:15:23;;;;;;;4.93;1.70;;;14.80;77.60;;;;;;5034452;28;20021;-69
2023/05/20 05:17:50;;;;;;;5.32;1.75;;;14.80;77.70;;;;;;5017067;28;20303;-68
2023/05/20 05:20:16;;;;;;;6.07;2.47;;;14.80;77.80;;;;;;5034190;28;20045;-68
2023/05/20 05:22:42;;;;;;;4.35;1.40;;;14.90;77.60;;;;;;5033888;28;20494;-69
2023/05/20 05:25:08;;;;;;;4.78;1.70;;;14.90;78.00;;;;;;5033969;28;20037;-69
2023/05/20 05:27:34;;;;;;;3.30;1.27;;;14.90;78.20;;;;;;5033906;28;20414;-69
2023/05/20 05:30:01;;;;;;;4.45;1.50;;;15.00;77.90;;;;;;5034204;28;20591;-68
2023/05/20 05:32:27;;;;;;;3.97;1.88;;;15.00;77.90;;;;;;5033960;28;20168;-68
2023/05/20 05:34:52;;;;;;;4.32;1.60;;;15.00;78.30;;;;;;5033972;28;20121;-68
2023/05/20 05:37:18;;;;;;;3.13;1.70;;;15.10;78.30;;;;;;5033805;28;20049;-69
2023/05/20 05:39:44;;;;;;;4.13;1.92;;;15.10;77.90;;;;;;5033650;28;20049;-68
2023/05/20 05:42:09;;;;;;;3.60;1.80;;;15.20;78.40;;;;;;5033590;28;20017;-68
2023/05/20 05:44:35;;;;;;;4.18;1.95;;;15.10;78.60;;;;;;5033976;28;20025;-67
2023/05/20 05:47:01;;;;;;;6.07;1.60;;;15.10;78.60;;;;;;5033920;28;20456;-66
2023/05/20 05:49:26;;;;;;;2.63;1.70;;;15.20;78.80;;;;;;5033333;28;20456;-67
2023/05/20 05:51:52;;;;;;;3.47;1.63;;;15.30;78.90;;;;;;5033547;28;20048;-67
2023/05/20 05:54:19;;;;;;;9.40;2.17;;;15.20;78.70;;;;;;5033400;28;20029;-68
2023/05/20 05:56:45;;;;;;;4.50;1.58;;;15.40;79.10;;;;;;5032723;28;20112;-68
2023/05/20 05:59:11;;;;;;;2.47;1.73;;;15.40;78.80;;;;;;5015834;28;20375;-68
2023/05/20 06:01:37;;;;;;;3.08;1.63;;;15.40;79.10;;;;;;5033398;28;20048;-66
2023/05/20 06:04:03;;;;;;;4.90;1.80;;;15.40;79.50;;;;;;5033335;28;20037;-67
2023/05/20 06:06:30;;;;;;;3.05;1.80;;;15.50;79.60;;;;;;5033265;28;20040;-68
2023/05/20 06:08:56;;;;;;;4.30;1.98;;;15.50;79.80;;;;;;5033919;28;20459;-68
2023/05/20 06:11:23;;;;;;;2.45;1.65;;;15.50;80.10;;;;;;5033408;28;20049;-67
2023/05/20 06:13:49;;;;;;;7.28;2.38;;;15.50;80.40;;;;;;5033127;28;20472;-69
2023/05/20 06:16:15;;;;;;;8.82;2.30;;;15.60;80.60;;;;;;5033017;28;20029;-68
2023/05/20 06:18:41;;;;;;;2.95;1.83;;;15.60;80.30;;;;;;5032933;28;20025;-68
2023/05/20 06:21:07;;;;;;;4.72;1.80;;;15.70;80.40;;;;;;5032961;28;20056;-69
2023/05/20 06:23:32;;;;;;;3.05;1.90;;;15.70;80.40;;;;;;5033195;28;20064;-67
2023/05/20 06:25:59;;;;;;;5.82;2.20;;;15.80;80.40;;;;;;5015577;28;20360;-69
2023/05/20 06:28:25;;;;;;;4.50;2.15;;;15.80;80.40;;;;;;5032750;28;20471;-67
2023/05/20 06:30:53;;;;;;;10.43;2.42;;;15.90;80.30;;;;;;5032864;28;20041;-68
2023/05/20 06:33:19;;;;;;;8.90;2.40;;;16.00;80.40;;;;;;5032745;28;20021;-64
2023/05/20 06:35:45;;;;;;;7.50;1.90;;;16.10;80.30;;;;;;5032972;28;20090;-66
2023/05/20 06:38:10;;;;;;;12.35;3.30;;;16.20;80.60;;;;;;5032479;28;20026;-68
2023/05/20 06:40:36;;;;;;;10.05;2.70;;;16.20;80.50;;;;;;5032499;28;20032;-68
2023/05/20 06:43:02;;;;;;;5.82;2.75;;;16.30;80.50;;;;;;5032515;28;20029;-66
2023/05/20 06:45:27;;;;;;;13.93;2.55;;;16.40;80.40;;;;;;5032343;28;20026;-66
2023/05/20 06:47:53;;;;;;;3.63;2.03;;;16.40;80.70;;;;;;5015155;28;20025;-66
2023/05/20 06:50:19;;;;;;;3.45;2.30;;;16.50;80.90;;;;;;5032256;28;20498;-68
2023/05/20 06:52:45;;;;;;;4.38;2.60;;;16.60;81.10;;;;;;5032347;28;20052;-69
2023/05/20 06:55:11;;;;;;;4.93;2.45;;;16.70;81.20;;;;;;5032168;28;20037;-68
2023/05/20 06:57:37;;;;;;;3.95;2.42;;;16.70;81.20;;;;;;5014690;28;20025;-68
2023/05/20 07:00:04;;;;;;;5.90;2.60;;;16.70;81.00;;;;;;5032612;28;20055;-67
2023/05/20 07:02:32;;;;;;;6.15;2.65;;;16.80;80.90;;;;;;5032166;28;20045;-68
2023/05/20 07:04:58;;;;;;;4.25;2.60;;;16.90;80.60;;;;;;5032038;28;20475;-68
2023/05/20 07:07:23;;;;;;;3.67;2.47;;;17.00;80.60;;;;;;5031661;28;20033;-68
2023/05/20 07:09:49;;;;;;;6.35;1.90;;;17.10;80.30;;;;;;5014317;28;20037;-68
2023/05/20 07:12:15;;;;;;;5.93;1.77;;;17.30;79.80;;;;;;5032088;28;20029;-68
2023/05/20 07:14:41;;;;;;;3.10;2.03;;;17.50;79.40;;;;;;5032645;28;20154;-68
2023/05/20 07:17:07;;;;;;;3.65;1.80;;;17.60;79.20;;;;;;5031953;28;20497;-67
2023/05/20 07:19:32;;;;;;;5.90;2.03;;;17.70;79.00;;;;;;5031977;28;20038;-68
2023/05/20 07:21:59;;;;;;;9.23;2.83;;;17.80;78.40;;;;;;5031735;28;20095;-68
2023/05/20 07:24:24;;;;;;;3.20;1.95;;;17.90;78.10;;;;;;5031767;28;20391;-68
2023/05/20 07:26:50;;;;;;;4.75;2.17;;;18.00;78.20;;;;;;5031986;28;20022;-69
2023/05/20 07:29:16;;;;;;;3.00;1.58;;;18.10;77.50;;;;;;5031471;28;20037;-69
2023/05/20 07:31:42;;;;;;;3.63;1.85;;;18.20;76.40;;;;;;5031393;28;20422;-68
2023/05/20 07:34:08;;;;;;;4.22;1.70;;;18.20;76.50;;;;;;5031418;28;20041;-67
2023/05/20 07:36:33;;;;;;;4.80;1.70;;;18.20;76.40;;;;;;5031390;28;20341;-68
2023/05/20 07:38:59;;;;;;;3.25;1.63;;;18.30;76.30;;;;;;5031797;28;20112;-69
2023/05/20 07:41:25;;;;;;;3.30;1.95;;;18.30;76.90;;;;;;5031309;28;20109;-67
2023/05/20 07:43:51;;;;;;;6.45;1.80;;;18.40;76.20;;;;;;5031219;28;20424;-70
2023/05/20 07:46:17;;;;;;;8.73;2.00;;;18.50;76.00;;;;;;5031372;28;20041;-69
2023/05/20 07:48:43;;;;;;;2.58;2.30;;;18.30;75.70;;;;;;5031255;28;20094;-69
2023/05/20 07:51:10;;;;;;;4.43;1.75;;;18.40;75.70;;;;;;5031181;28;20028;-69
2023/05/20 07:53:36;;;;;;;5.32;1.75;;;18.40;75.20;;;;;;5031831;28;20033;-70
2023/05/20 07:56:02;;;;;;;4.40;1.73;;;18.50;75.60;;;;;;5031310;28;20596;-70
2023/05/20 07:58:28;;;;;;;4.03;2.15;;;18.30;75.60;;;;;;5031058;28;20105;-69
2023/05/20 08:00:54;;;;;;;5.25;2.20;;;18.40;75.50;;;;;;5030887;28;20083;-69
2023/05/20 08:03:21;;;;;;;4.15;1.60;;;18.50;75.90;;;;;;5030908;28;20104;-68
2023/05/20 08:05:46;;;;;;;6.18;1.75;;;18.70;75.00;;;;;;5031520;28;20082;-69
2023/05/20 08:08:12;;;;;;;4.10;1.73;;;18.90;75.00;;;;;;5030964;28;20033;-70
2023/05/20 08:10:38;;;;;;;3.88;1.88;;;19.10;74.70;;;;;;5030850;28;20490;-68
2023/05/20 08:13:03;;;;;;;5.13;2.20;;;19.20;74.50;;;;;;5030968;28;20033;-69
2023/05/20 08:15:29;;;;;;;6.22;2.85;;;19.50;74.20;;;;;;5030810;28;20112;-69
2023/05/20 08:17:55;;;;;;;4.50;1.90;;;19.80;73.80;;;;;;5031308;28;20025;-69
2023/05/20 08:20:21;;;;;;;3.75;1.80;;;20.00;73.20;;;;;;5030251;28;20438;-68
2023/05/20 08:22:47;;;;;;;5.90;2.33;;;20.30;73.40;;;;;;5030695;28;20030;-68
2023/05/20 08:25:13;;;;;;;6.18;1.85;;;20.60;72.60;;;;;;5013155;28;20077;-68
2023/05/20 08:27:39;;;;;;;3.40;2.03;;;20.70;71.80;;;;;;5030567;28;20026;-68
2023/05/20 08:30:08;;;;;;;4.68;2.00;;;21.10;71.60;;;;;;5031009;28;20029;-69
2023/05/20 08:32:34;;;;;;;6.18;1.85;;;21.70;70.90;;;;;;5030729;28;20124;-67
2023/05/20 08:35:01;;;;;;;3.92;1.98;;;21.90;68.90;;;;;;5030616;28;20026;-68
2023/05/20 08:37:27;;;;;;;5.38;2.10;;;21.80;68.30;;;;;;5030597;28;20065;-69
2023/05/20 08:39:54;;;;;;;5.68;2.25;;;21.50;68.20;;;;;;5030242;28;20048;-69
2023/05/20 08:42:22;;;;;;;4.57;2.35;;;21.20;68.50;;;;;;5030401;28;20041;-68
2023/05/20 08:44:52;;;;;;;5.18;2.50;;;21.00;68.70;;;;;;5030979;28;20022;-68
2023/05/20 08:47:21;;;;;;;3.83;2.00;;;20.80;69.20;;;;;;5030455;28;20040;-67
2023/05/20 08:49:48;;;;;;;4.15;1.60;;;21.10;70.00;;;;;;5030390;28;20487;-69
2023/05/20 08:52:16;;;;;;;2.08;1.40;;;21.30;69.70;;;;;;5012887;28;20044;-68
2023/05/20 08:54:45;;;;;;;3.25;1.90;;;21.60;69.00;;;;;;5030262;28;20137;-68
2023/05/20 08:57:12;;;;;;;4.93;2.00;;;21.80;68.40;;;;;;5030243;28;20028;-68
2023/05/20 08:59:43;;;;;;;3.65;2.22;;;21.70;67.70;;;;;;5030703;28;20018;-69
2023/05/20 09:02:09;;;;;;;2.58;1.83;;;21.30;68.20;;;;;;5030613;28;20057;-68
2023/05/20 09:04:36;;;;;;;3.90;1.85;;;21.20;68.40;;;;;;5030537;28;20292;-68
2023/05/20 09:07:02;;;;;;;6.85;1.95;;;21.00;68.70;;;;;;5030328;28;20030;-69
2023/05/20 09:09:28;;;;;;;2.70;2.00;;;20.90;69.40;;;;;;5030099;28;20103;-69
2023/05/20 09:11:54;;;;;;;2.65;1.58;;;20.80;69.20;;;;;;5030672;28;20025;-68
2023/05/20 09:14:20;;;;;;;4.05;2.28;;;20.70;69.30;;;;;;5030038;28;20034;-68
2023/05/20 09:16:47;;;;;;;2.70;2.00;;;20.40;69.80;;;;;;5030139;28;20502;-68
2023/05/20 09:19:12;;;;;;;5.00;1.98;;;20.10;70.10;;;;;;5030142;28;20049;-69
2023/05/20 09:21:40;;;;;;;2.33;1.45;;;19.90;70.90;;;;;;5030081;28;20046;-69
2023/05/20 09:24:06;;;;;;;6.10;1.92;;;20.20;71.50;;;;;;5029897;28;20048;-67
2023/05/20 09:26:32;;;;;;;3.90;2.10;;;20.40;70.80;;;;;;5030875;28;20030;-68
2023/05/20 09:28:58;;;;;;;3.97;2.00;;;20.30;70.40;;;;;;5030086;28;20378;-68
2023/05/20 09:31:29;;;;;;;3.72;1.73;;;20.20;70.70;;;;;;5031810;28;20099;-69
2023/05/20 09:33:55;;;;;;;5.00;2.25;;;20.10;70.80;;;;;;5016286;28;20480;-69
2023/05/20 09:36:23;;;;;;;7.22;2.58;;;19.70;71.50;;;;;;5033715;28;20030;-69
2023/05/20 09:38:52;;;;;;;5.28;2.20;;;19.50;72.00;;;;;;5016603;28;20057;-69
2023/05/20 09:41:22;;;;;;;7.80;3.28;;;19.30;72.60;;;;;;5033703;28;20497;-69
2023/05/20 09:43:50;;;;;;;2.97;1.88;;;18.90;73.30;;;;;;5033562;28;20041;-69
2023/05/20 09:46:16;;;;;;;3.63;1.98;;;18.90;73.50;;;;;;5033689;28;20107;-69
2023/05/20 09:48:43;;;;;;;6.15;2.42;;;18.90;73.70;;;;;;5033446;28;20087;-70
2023/05/20 09:51:10;;;;;;;6.07;2.10;;;18.90;74.00;;;;;;5015878;28;20440;-69
2023/05/20 09:53:36;;;;;;;7.05;1.98;;;18.90;73.90;;;;;;5033961;28;20355;-69
2023/05/20 09:56:02;;;;;;;6.72;3.55;;;18.90;74.10;;;;;;5015880;28;20033;-70
2023/05/20 09:58:29;;;;;;;19.23;9.65;;;18.90;74.50;;;;;;5015896;28;20396;-70
2023/05/20 10:00:54;;;;;;;8.13;2.67;;;18.90;74.70;;;;;;5033320;28;20038;-68
2023/05/20 10:03:23;;;;;;;3.88;1.63;;;18.70;75.10;;;;;;5033234;28;20463;-70
2023/05/20 10:06:08;;;;;;;2.17;1.58;;;18.80;74.90;;;;;;5016279;28;20363;-68
2023/05/20 10:08:49;;;;;;;3.63;2.00;;;18.80;74.90;;;;;;5033242;28;20049;-69
2023/05/20 10:11:40;;;;;;;3.30;1.98;;;18.90;74.60;;;;;;5033112;28;20026;-69
2023/05/20 10:14:24;;;;;;;2.60;1.65;;;19.00;74.30;;;;;;5033154;28;20030;-69
2023/05/20 10:17:24;;;;;;;2.17;1.67;;;18.90;74.30;;;;;;5032975;28;20030;-69
2023/05/20 10:19:56;;;;;;;7.55;1.90;;;18.80;74.20;;;;;;5033047;28;20395;-70
2023/05/20 10:22:30;;;;;;;3.92;1.77;;;18.80;74.30;;;;;;5032722;28;20079;-69
2023/05/20 10:25:05;;;;;;;3.75;1.88;;;18.70;75.00;;;;;;5032988;28;20038;-69
2023/05/20 10:27:45;;;;;;;3.53;1.95;;;18.60;75.30;;;;;;5032969;28;20038;-70
2023/05/20 10:30:21;;;;;;;3.70;1.80;;;18.50;75.50;;;;;;5032537;28;20022;-69
2023/05/20 10:33:01;;;;;;;7.10;2.35;;;18.60;75.60;;;;;;5033463;28;20037;-70
2023/05/20 10:35:27;;;;;;;4.80;2.25;;;18.60;75.60;;;;;;5032973;28;20052;-69
2023/05/20 10:38:05;;;;;;;8.88;3.30;;;18.60;75.90;;;;;;5032784;28;20428;-69
2023/05/20 10:40:30;;;;;;;5.15;2.38;;;18.60;76.40;;;;;;5014953;28;20030;-68
2023/05/20 10:43:08;;;;;;;4.13;2.05;;;18.60;76.30;;;;;;5031909;28;20037;-70
2023/05/20 10:45:36;;;;;;;4.15;2.13;;;18.70;76.20;;;;;;5032414;28;20461;-69
2023/05/20 10:48:01;;;;;;;;;;;18.70;76.10;;;;;;5033334;28;20017;-68
2023/05/20 10:50:34;;;;;;;3.75;2.28;;;18.70;76.30;;;;;;5032382;28;19928;-69
2023/05/20 10:53:10;;;;;;;4.40;2.17;;;18.60;76.40;;;;;;5032472;28;20156;-69
2023/05/20 10:55:37;;;;;;;2.58;1.58;;;18.60;76.50;;;;;;5032374;28;20091;-69
2023/05/20 10:58:04;;;;;;;5.20;2.03;;;18.60;76.60;;;;;;5032266;28;20360;-69
2023/05/20 11:00:31;;;;;;;3.15;2.30;;;18.70;76.50;;;;;;5014549;28;20026;-69
2023/05/20 11:02:57;;;;;;;3.78;2.03;;;18.80;76.50;;;;;;5015307;28;20381;-68
2023/05/20 11:05:25;;;;;;;2.13;1.90;;;18.90;76.50;;;;;;5032357;28;20036;-68
2023/05/20 11:08:03;;;;;;;3.63;2.30;;;18.90;76.50;;;;;;5014352;28;20021;-70
2023/05/20 11:10:29;;;;;;;6.57;2.00;;;18.80;76.60;;;;;;5031821;28;20044;-69
2023/05/20 11:12:57;;;;;;;4.65;2.00;;;18.80;76.60;;;;;;5031826;28;20121;-70
2023/05/20 11:15:26;;;;;;;3.10;2.00;;;18.70;76.80;;;;;;5031684;28;20090;-69
2023/05/20 11:18:00;;;;;;;5.30;2.30;;;18.70;76.60;;;;;;5032236;28;20029;-68
2023/05/20 11:20:26;;;;;;;4.32;1.88;;;18.70;76.90;;;;;;5031601;28;20156;-70
2023/05/20 11:22:56;;;;;;;2.80;1.88;;;18.70;76.80;;;;;;5031657;28;20029;-69
2023/05/20 11:25:25;;;;;;;2.85;2.10;;;18.70;77.10;;;;;;5014245;28;20038;-69
2023/05/20 11:27:53;;;;;;;7.00;2.00;;;18.70;77.40;;;;;;5031583;28;20037;-68
2023/05/20 11:30:19;;;;;;;3.45;1.95;;;18.70;77.60;;;;;;5031286;28;20116;-70
2023/05/20 11:32:59;;;;;;;3.47;2.15;;;18.70;77.80;;;;;;5032031;28;20014;-70
2023/05/20 11:35:28;;;;;;;4.18;2.30;;;18.70;77.70;;;;;;5014001;28;20036;-68
2023/05/20 11:38:05;;;;;;;6.30;2.45;;;18.80;77.70;;;;;;5031490;28;20029;-69
2023/05/20 11:40:32;;;;;;;4.38;2.13;;;18.70;77.90;;;;;;5013870;28;20124;-69
2023/05/20 11:43:00;;;;;;;6.23;2.27;;;18.70;78.20;;;;;;5031499;28;20418;-69
2023/05/20 11:45:28;;;;;;;5.65;2.00;;;18.80;78.20;;;;;;5031422;28;20033;-69
2023/05/20 11:48:04;;;;;;;3.45;2.22;;;18.90;78.10;;;;;;5031685;28;20026;-69
2023/05/20 11:50:39;;;;;;;6.47;2.38;;;19.00;77.80;;;;;;5031147;28;20033;-68
2023/05/20 11:53:13;;;;;;;5.43;2.47;;;19.20;77.70;;;;;;5031340;28;20022;-69
2023/05/20 11:55:47;;;;;;;3.35;2.30;;;19.30;77.30;;;;;;5030469;28;20044;-68
2023/05/20 11:58:18;;;;;;;3.85;2.28;;;19.40;77.00;;;;;;5031411;28;20367;-67
2023/05/20 12:00:44;;;;;;;4.63;2.20;;;19.50;77.10;;;;;;5031349;28;20099;-68
2023/05/20 12:03:10;;;;;;;5.07;2.00;;;19.40;76.90;;;;;;5031238;28;20419;-68
2023/05/20 12:05:36;;;;;;;4.45;2.25;;;19.40;76.80;;;;;;5031946;28;20017;-69
2023/05/20 12:08:02;;;;;;;2.88;1.83;;;19.30;76.80;;;;;;5030800;28;20491;-69
2023/05/20 12:10:28;;;;;;;3.17;2.20;;;19.30;77.10;;;;;;5030818;28;20111;-69
2023/05/20 12:12:54;;;;;;;6.45;2.50;;;19.30;77.20;;;;;;5030795;28;20530;-70
2023/05/20 12:15:20;;;;;;;6.53;3.08;;;19.30;77.20;;;;;;5013228;28;20057;-69
2023/05/20 12:17:48;;;;;;;7.60;3.30;;;19.40;77.50;;;;;;5013780;28;20064;-69
2023/05/20 12:20:18;;;;;;;8.57;2.33;;;19.60;77.40;;;;;;5030716;28;20034;-69
2023/05/20 12:22:44;;;;;;;3.78;2.22;;;19.60;76.90;;;;;;5029903;28;20025;-68
2023/05/20 12:25:12;;;;;;;5.72;2.42;;;19.60;76.90;;;;;;5027450;28;20044;-69
2023/05/20 12:27:38;;;;;;;4.40;2.42;;;19.60;76.90;;;;;;5031527;28;20045;-69
2023/05/20 12:30:04;;;;;;;6.72;2.45;;;19.40;77.70;;;;;;5031827;28;20056;-68
2023/05/20 12:32:30;;;;;;;3.80;2.30;;;19.40;77.30;;;;;;5031650;28;20033;-69
2023/05/20 12:34:56;;;;;;;5.07;2.90;;;19.50;77.30;;;;;;5031675;28;20509;-69
2023/05/20 12:37:21;;;;;;;6.00;2.45;;;19.60;77.00;;;;;;5031638;28;20025;-67
2023/05/20 12:39:47;;;;;;;5.25;2.80;;;19.60;77.10;;;;;;5013946;28;20128;-67
2023/05/20 12:42:12;;;;;;;5.93;2.60;;;19.60;77.00;;;;;;5031423;28;20064;-68
2023/05/20 12:44:38;;;;;;;4.38;2.92;;;19.50;76.90;;;;;;5031887;28;20022;-69
2023/05/20 12:47:04;;;;;;;6.38;2.65;;;19.50;76.90;;;;;;5031534;28;20033;-67
2023/05/20 12:49:29;;;;;;;7.57;3.58;;;19.60;77.20;;;;;;5031484;28;20057;-68